Kunia, Hawaii
Current Conditions -  °F | °C
As of 5:58 PM on Tuesday 25 Nov 2014 (Local Time) from PHHI Reporting Station
Clear Clear  
Wind Chill: 69°   Ceiling: Unl
Heat Index: 69°   Visibility: 10mi
Dew Point: 59°   Wind: 6mph
Humidity: 72%   Direction: 330°NNW
Pressure: 30.04"   Gusts: NA
Location:  21.48°N, 158.07°W
Report Text: PHHI 260358Z AUTO 33005KT 10SM CLR 20/15 A3004 RMK AO2 SLP167 T02030150 $
Loading
Personal Weather Stations






























Interactive Weather Map New forecast layout! Learn more

10-Day Weather Forecast

Advertisements
Track Severe Weather on mobile